createdAt,value
2023-11-24T00:00:46.631Z,100690.16
2023-11-24T00:05:43.326Z,100678.00
2023-11-24T00:10:40.001Z,100671.53
2023-11-24T00:15:38.668Z,100670.72
2023-11-24T00:20:35.689Z,100657.53
2023-11-24T00:25:33.176Z,100642.00
2023-11-24T00:30:29.771Z,100628.66
2023-11-24T00:35:27.107Z,100608.78
2023-11-24T00:40:23.845Z,100602.59
2023-11-24T00:45:20.624Z,100585.47
2023-11-24T00:50:17.588Z,100563.84
2023-11-24T00:55:15.209Z,100557.69
2023-11-24T01:00:12.625Z,100540.84
2023-11-24T01:05:09.980Z,100531.44
2023-11-24T01:10:08.378Z,100519.03
2023-11-24T01:15:06.736Z,100510.28
2023-11-24T01:20:04.607Z,100509.44
2023-11-24T01:25:02.766Z,100493.09
2023-11-24T01:29:59.466Z,100482.41
2023-11-24T01:34:56.827Z,100471.69
2023-11-24T01:39:53.919Z,100463.47
2023-11-24T01:44:50.749Z,100443.47
2023-11-24T01:49:48.175Z,100456.03
2023-11-24T01:54:47.891Z,100444.25
2023-11-24T01:59:44.855Z,100428.31
2023-11-24T02:04:41.519Z,100425.69
2023-11-24T02:09:40.750Z,100417.84
2023-11-24T02:14:38.299Z,100410.84
2023-11-24T02:19:34.974Z,100395.81
2023-11-24T02:24:32.353Z,100374.09
2023-11-24T02:29:31.624Z,100387.47
2023-11-24T02:34:28.824Z,100380.22
2023-11-24T02:39:26.413Z,100369.16
2023-11-24T02:44:23.718Z,100364.28
2023-11-24T02:49:20.418Z,100344.22
2023-11-24T02:54:18.147Z,100334.03
2023-11-24T02:59:14.795Z,100324.63
2023-11-24T03:04:12.810Z,100334.19
2023-11-24T03:09:10.523Z,100320.56
2023-11-24T03:14:07.998Z,100310.19
2023-11-24T03:19:04.718Z,100301.25
2023-11-24T03:24:01.950Z,100297.50
2023-11-24T03:28:58.729Z,100290.50
2023-11-24T03:33:55.442Z,100270.81
2023-11-24T03:38:55.816Z,100261.97
2023-11-24T03:43:53.872Z,100259.75
2023-11-24T03:48:52.758Z,100254.13
2023-11-24T03:53:49.621Z,100233.97
2023-11-24T03:58:46.523Z,100202.84
2023-11-24T04:03:48.904Z,100208.41
2023-11-24T04:08:45.770Z,100192.88
2023-11-24T04:13:43.856Z,100196.91
2023-11-24T04:18:40.740Z,100172.81
2023-11-24T04:23:42.420Z,100172.41
2023-11-24T04:28:39.397Z,100172.13
2023-11-24T04:33:36.621Z,100168.78
2023-11-24T04:38:36.474Z,100169.84
2023-11-24T04:43:34.086Z,100166.34
2023-11-24T04:48:30.828Z,100165.66
2023-11-24T04:53:27.494Z,100158.75
2023-11-24T04:58:24.194Z,100171.56
2023-11-24T05:03:21.609Z,100163.81
2023-11-24T05:08:18.289Z,100158.72
2023-11-24T05:13:14.980Z,100154.59
2023-11-24T05:18:13.542Z,100153.75
2023-11-24T05:23:11.012Z,100158.06
2023-11-24T05:28:10.188Z,100151.16
2023-11-24T05:33:06.940Z,100150.34
2023-11-24T05:38:06.793Z,100144.25
2023-11-24T05:43:04.663Z,100145.84
2023-11-24T05:48:02.321Z,100161.66
2023-11-24T05:52:59.066Z,100156.13
2023-11-24T05:57:57.140Z,100159.75
2023-11-24T06:02:54.659Z,100160.56
2023-11-24T06:07:54.096Z,100158.03
2023-11-24T06:12:55.590Z,100149.84
2023-11-24T06:17:52.261Z,100143.03
2023-11-24T06:22:49.915Z,100130.09
2023-11-24T06:27:46.660Z,100125.28
2023-11-24T06:32:43.750Z,100117.97
2023-11-24T06:37:43.322Z,100123.47
2023-11-24T06:42:41.353Z,100119.88
2023-11-24T06:47:41.246Z,100119.25
2023-11-24T06:52:38.187Z,100120.59
2023-11-24T06:57:40.930Z,100104.31
2023-11-24T07:02:42.800Z,100095.56
2023-11-24T07:07:39.617Z,100081.00
2023-11-24T07:12:38.150Z,100064.03
2023-11-24T07:17:37.598Z,100050.09
2023-11-24T07:22:35.001Z,100044.06
2023-11-24T07:27:32.450Z,100039.63
2023-11-24T07:32:30.037Z,100046.50
2023-11-24T07:37:27.318Z,100050.28
2023-11-24T07:42:25.123Z,100042.97
2023-11-24T07:47:22.160Z,100044.84
2023-11-24T07:52:19.076Z,100036.41
2023-11-24T07:57:15.973Z,100030.28
2023-11-24T08:02:13.698Z,100024.69
2023-11-24T08:07:10.886Z,100027.72
2023-11-24T08:12:10.378Z,100007.16
2023-11-24T08:17:09.993Z,100016.06
2023-11-24T08:22:07.871Z,100008.97
2023-11-24T08:27:05.384Z,99993.78
2023-11-24T08:32:02.845Z,100005.16
2023-11-24T08:37:02.750Z,100000.88
2023-11-24T08:42:00.455Z,99983.59
2023-11-24T08:46:57.535Z,99965.41
2023-11-24T08:51:54.587Z,99953.13
2023-11-24T08:56:51.753Z,99952.88
2023-11-24T09:01:50.061Z,99938.94
2023-11-24T09:06:48.611Z,99930.78
2023-11-24T09:11:45.473Z,99920.94
2023-11-24T09:16:42.463Z,99906.19
2023-11-24T09:21:40.292Z,99883.91
2023-11-24T09:26:37.225Z,99884.59
2023-11-24T09:31:35.822Z,99869.94
2023-11-24T09:36:34.828Z,99864.28
2023-11-24T09:41:36.745Z,99840.69
2023-11-24T09:46:46.273Z,99836.50
2023-11-24T09:51:49.250Z,99835.53
2023-11-24T09:56:46.926Z,99817.25
2023-11-24T10:01:44.054Z,99786.06
2023-11-24T10:06:44.151Z,99788.75
2023-11-24T10:11:45.563Z,99768.47
2023-11-24T10:16:43.342Z,99776.03
2023-11-24T10:21:43.542Z,99757.97
2023-11-24T10:26:42.898Z,99738.81
2023-11-24T10:31:40.227Z,99716.97
2023-11-24T10:36:37.971Z,99736.41
2023-11-24T10:41:40.020Z,99731.06
2023-11-24T10:46:46.861Z,99712.25
2023-11-24T10:51:49.679Z,99706.88
2023-11-24T10:56:51.161Z,99674.00
2023-11-24T11:01:52.868Z,99677.13
2023-11-24T11:07:06.148Z,99654.59
2023-11-24T11:12:30.198Z,99647.44
2023-11-24T11:17:27.256Z,99645.50
2023-11-24T11:22:31.081Z,99636.03
2023-11-24T11:27:36.026Z,99622.75
2023-11-24T11:32:32.893Z,99621.78
2023-11-24T11:37:32.146Z,99616.00
2023-11-24T11:42:52.754Z,99609.56
2023-11-24T11:48:06.342Z,99599.16
2023-11-24T11:53:06.356Z,99594.16
2023-11-24T11:58:04.914Z,99593.53
2023-11-24T12:03:05.709Z,99587.78
2023-11-24T12:08:07.152Z,99585.53
2023-11-24T12:13:06.615Z,99585.28
2023-11-24T12:18:08.643Z,99579.34
2023-11-24T12:23:08.559Z,99572.94
2023-11-24T12:28:06.651Z,99576.31
2023-11-24T12:33:04.435Z,99578.72
2023-11-24T12:38:01.168Z,99591.47
2023-11-24T12:43:01.130Z,99585.00
2023-11-24T12:48:03.251Z,99569.97
2023-11-24T12:53:04.284Z,99567.75
2023-11-24T12:58:01.841Z,99561.06
2023-11-24T13:02:58.681Z,99556.88
2023-11-24T13:07:57.764Z,99555.59
2023-11-24T13:12:54.914Z,99543.97
2023-11-24T13:17:54.088Z,99541.69
2023-11-24T13:22:52.382Z,99538.13
2023-11-24T13:27:52.575Z,99530.03
2023-11-24T13:32:50.163Z,99524.41
2023-11-24T13:37:59.531Z,99515.69
2023-11-24T13:43:01.484Z,99504.63
2023-11-24T13:48:01.118Z,99516.84
2023-11-24T13:52:58.960Z,99519.97
2023-11-24T13:58:03.609Z,99508.72
2023-11-24T14:03:01.802Z,99484.25
2023-11-24T14:07:59.683Z,99502.22
2023-11-24T14:13:01.481Z,99496.53
2023-11-24T14:18:02.279Z,99493.44
2023-11-24T14:23:00.219Z,99483.31
2023-11-24T14:27:59.907Z,99483.38
2023-11-24T14:32:59.836Z,99476.00
2023-11-24T14:37:57.683Z,99470.84
2023-11-24T14:42:55.385Z,99462.47
2023-11-24T14:47:54.082Z,99461.88
2023-11-24T14:52:51.126Z,99451.81
2023-11-24T14:57:48.598Z,99446.28
2023-11-24T15:02:49.022Z,99447.06
2023-11-24T15:07:50.186Z,99449.03
2023-11-24T15:12:48.420Z,99443.53
2023-11-24T15:17:48.950Z,99451.91
2023-11-24T15:22:46.418Z,99427.69
2023-11-24T15:27:48.063Z,99449.44
2023-11-24T15:32:45.141Z,99459.97
2023-11-24T15:37:41.904Z,99473.25
2023-11-24T15:42:39.584Z,99473.19
2023-11-24T15:47:39.320Z,99499.22
2023-11-24T15:52:37.561Z,99484.03
2023-11-24T15:57:39.328Z,99516.84
2023-11-24T16:02:38.228Z,99519.06
2023-11-24T16:07:35.369Z,99532.38
2023-11-24T16:12:34.054Z,99534.44
2023-11-24T16:17:30.917Z,99540.94
2023-11-24T16:22:28.404Z,99528.16
2023-11-24T16:27:25.077Z,99527.34
2023-11-24T16:32:22.777Z,99537.09
2023-11-24T16:37:19.724Z,99543.19
2023-11-24T16:42:16.981Z,99546.47
2023-11-24T16:47:16.745Z,99545.53
2023-11-24T16:52:13.868Z,99548.75
2023-11-24T16:57:12.951Z,99545.91
2023-11-24T17:02:10.464Z,99547.09
2023-11-24T17:07:07.381Z,99551.69
2023-11-24T17:12:07.697Z,99548.47
2023-11-24T17:17:06.276Z,99542.47
2023-11-24T17:22:07.174Z,99530.44
2023-11-24T17:27:05.552Z,99534.50
2023-11-24T17:32:05.443Z,99533.25
2023-11-24T17:37:03.339Z,99530.28
2023-11-24T17:42:00.858Z,99525.63
2023-11-24T17:46:57.733Z,99495.56
2023-11-24T17:51:54.735Z,99503.44
2023-11-24T17:56:54.031Z,99493.47
2023-11-24T18:01:51.612Z,99495.91
2023-11-24T18:06:48.476Z,99478.97
2023-11-24T18:11:47.970Z,99472.31
2023-11-24T18:16:48.214Z,99456.81
2023-11-24T18:21:48.229Z,99460.28
2023-11-24T18:26:45.164Z,99460.34
2023-11-24T18:31:42.827Z,99457.13
2023-11-24T18:36:41.702Z,99453.00
2023-11-24T18:41:39.067Z,99455.88
2023-11-24T18:46:35.895Z,99449.25
2023-11-24T18:51:32.705Z,99440.72
2023-11-24T18:56:29.489Z,99440.41
2023-11-24T19:01:28.842Z,99431.94
2023-11-24T19:06:26.657Z,99430.13
2023-11-24T19:11:24.033Z,99411.47
2023-11-24T19:16:23.159Z,99407.13
2023-11-24T19:21:23.423Z,99409.16
2023-11-24T19:26:21.018Z,99414.53
2023-11-24T19:31:20.591Z,99409.34
2023-11-24T19:36:19.975Z,99419.03
2023-11-24T19:41:17.551Z,99430.47
2023-11-24T19:46:14.982Z,99446.25
2023-11-24T19:51:12.385Z,99440.44
2023-11-24T19:56:09.921Z,99438.00
2023-11-24T20:01:09.449Z,99428.88
2023-11-24T20:06:06.772Z,99409.06
2023-11-24T20:11:07.879Z,99403.53
2023-11-24T20:16:09.798Z,99381.28
2023-11-24T20:21:06.812Z,99384.13
2023-11-24T20:26:04.424Z,99361.34
2023-11-24T20:31:01.766Z,99370.91
2023-11-24T20:35:59.238Z,99381.00
2023-11-24T20:40:56.182Z,99399.78
2023-11-24T20:45:53.088Z,99404.81
2023-11-24T20:50:50.225Z,99399.50
2023-11-24T20:55:47.733Z,99392.31
2023-11-24T21:00:44.342Z,99395.88
2023-11-24T21:05:41.106Z,99383.63
2023-11-24T21:10:38.795Z,99375.72
2023-11-24T21:15:36.221Z,99364.13
2023-11-24T21:20:34.266Z,99354.38
2023-11-24T21:25:31.166Z,99357.00
2023-11-24T21:30:29.806Z,99359.34
2023-11-24T21:35:28.219Z,99368.53
2023-11-24T21:40:25.399Z,99367.38
2023-11-24T21:45:23.280Z,99357.31
2023-11-24T21:50:20.167Z,99361.28
2023-11-24T21:55:18.033Z,99359.13
2023-11-24T22:00:17.657Z,99360.22
2023-11-24T22:05:14.598Z,99362.53
2023-11-24T22:10:12.852Z,99358.91
2023-11-24T22:15:10.516Z,99364.75
2023-11-24T22:20:11.121Z,99368.31
2023-11-24T22:25:09.037Z,99362.22
2023-11-24T22:30:07.004Z,99349.38
2023-11-24T22:35:06.757Z,99308.38
2023-11-24T22:40:05.834Z,99308.13
2023-11-24T22:45:06.205Z,99331.00
2023-11-24T22:50:06.471Z,99297.97
2023-11-24T22:55:06.148Z,99320.94
2023-11-24T23:00:06.753Z,99304.38
2023-11-24T23:05:04.226Z,99302.69
2023-11-24T23:10:01.461Z,99293.44
2023-11-24T23:15:00.261Z,99282.31
2023-11-24T23:19:57.192Z,99264.03
2023-11-24T23:24:54.560Z,99255.44
2023-11-24T23:29:51.652Z,99244.72
2023-11-24T23:34:49.225Z,99241.03
2023-11-24T23:39:46.283Z,99250.25
2023-11-24T23:44:43.705Z,99260.56
2023-11-24T23:49:40.983Z,99254.91
2023-11-24T23:54:39.988Z,99262.59
2023-11-24T23:59:39.333Z,99256.84
